sensor_id;sensor_type;location;lat;lon;timestamp;pressure;altitude;pressure_sealevel;temperature;humidity
76753;BME280;65687;51.308;16.916;2023-04-06T00:01:57;100185.05;;;-1.35;79.37
76753;BME280;65687;51.308;16.916;2023-04-06T00:06:59;100182.66;;;-1.47;79.69
76753;BME280;65687;51.308;16.916;2023-04-06T00:12:00;100182.09;;;-1.52;80.07
76753;BME280;65687;51.308;16.916;2023-04-06T00:17:02;100180.42;;;-1.58;80.12
76753;BME280;65687;51.308;16.916;2023-04-06T00:22:04;100177.83;;;-1.51;80.20
76753;BME280;65687;51.308;16.916;2023-04-06T00:27:05;100178.52;;;-1.48;80.08
76753;BME280;65687;51.308;16.916;2023-04-06T00:32:07;100175.23;;;-1.46;80.34
76753;BME280;65687;51.308;16.916;2023-04-06T00:37:08;100175.63;;;-1.43;80.47
76753;BME280;65687;51.308;16.916;2023-04-06T00:42:13;100174.25;;;-1.61;80.10
76753;BME280;65687;51.308;16.916;2023-04-06T00:47:15;100173.39;;;-1.64;80.15
76753;BME280;65687;51.308;16.916;2023-04-06T00:52:17;100177.50;;;-1.68;79.75
76753;BME280;65687;51.308;16.916;2023-04-06T00:57:19;100179.21;;;-1.77;79.82
76753;BME280;65687;51.308;16.916;2023-04-06T01:02:21;100176.64;;;-1.77;79.84
76753;BME280;65687;51.308;16.916;2023-04-06T01:07:23;100176.52;;;-1.80;80.40
76753;BME280;65687;51.308;16.916;2023-04-06T01:12:25;100173.69;;;-1.84;80.84
76753;BME280;65687;51.308;16.916;2023-04-06T01:17:27;100173.02;;;-1.88;80.40
76753;BME280;65687;51.308;16.916;2023-04-06T01:22:29;100167.34;;;-1.88;80.64
76753;BME280;65687;51.308;16.916;2023-04-06T01:27:31;100163.20;;;-1.93;80.24
76753;BME280;65687;51.308;16.916;2023-04-06T01:32:33;100165.03;;;-1.85;80.54
76753;BME280;65687;51.308;16.916;2023-04-06T01:37:34;100165.93;;;-1.90;80.52
76753;BME280;65687;51.308;16.916;2023-04-06T01:42:36;100167.67;;;-1.89;80.51
76753;BME280;65687;51.308;16.916;2023-04-06T01:47:38;100166.05;;;-1.88;80.61
76753;BME280;65687;51.308;16.916;2023-04-06T01:52:40;100163.14;;;-1.86;80.75
76753;BME280;65687;51.308;16.916;2023-04-06T01:57:42;100161.20;;;-1.77;80.42
76753;BME280;65687;51.308;16.916;2023-04-06T02:02:43;100163.84;;;-1.70;80.65
76753;BME280;65687;51.308;16.916;2023-04-06T02:07:45;100161.18;;;-1.66;80.67
76753;BME280;65687;51.308;16.916;2023-04-06T02:12:47;100158.63;;;-1.67;80.72
76753;BME280;65687;51.308;16.916;2023-04-06T02:17:48;100159.30;;;-1.71;80.57
76753;BME280;65687;51.308;16.916;2023-04-06T02:22:50;100158.00;;;-1.76;80.65
76753;BME280;65687;51.308;16.916;2023-04-06T02:27:52;100158.71;;;-1.76;80.65
76753;BME280;65687;51.308;16.916;2023-04-06T02:32:53;100157.70;;;-1.73;80.21
76753;BME280;65687;51.308;16.916;2023-04-06T02:37:55;100159.52;;;-1.76;80.58
76753;BME280;65687;51.308;16.916;2023-04-06T02:42:56;100161.77;;;-1.78;80.49
76753;BME280;65687;51.308;16.916;2023-04-06T02:47:58;100167.14;;;-1.87;80.31
76753;BME280;65687;51.308;16.916;2023-04-06T02:52:59;100171.26;;;-2.02;79.83
76753;BME280;65687;51.308;16.916;2023-04-06T02:58:01;100175.37;;;-2.18;79.69
76753;BME280;65687;51.308;16.916;2023-04-06T03:03:02;100185.65;;;-2.32;79.99
76753;BME280;65687;51.308;16.916;2023-04-06T03:08:04;100186.92;;;-2.42;80.37
76753;BME280;65687;51.308;16.916;2023-04-06T03:13:06;100190.38;;;-2.50;80.51
76753;BME280;65687;51.308;16.916;2023-04-06T03:18:08;100186.31;;;-2.56;80.86
76753;BME280;65687;51.308;16.916;2023-04-06T03:23:09;100190.77;;;-2.59;80.37
76753;BME280;65687;51.308;16.916;2023-04-06T03:28:11;100197.71;;;-2.59;80.27
76753;BME280;65687;51.308;16.916;2023-04-06T03:33:13;100204.39;;;-2.57;80.44
76753;BME280;65687;51.308;16.916;2023-04-06T03:38:14;100199.55;;;-2.55;80.33
76753;BME280;65687;51.308;16.916;2023-04-06T03:43:16;100200.34;;;-2.51;79.81
76753;BME280;65687;51.308;16.916;2023-04-06T03:48:17;100209.61;;;-2.58;79.49
76753;BME280;65687;51.308;16.916;2023-04-06T03:53:19;100216.69;;;-2.69;79.62
76753;BME280;65687;51.308;16.916;2023-04-06T03:58:20;100219.40;;;-2.77;79.98
76753;BME280;65687;51.308;16.916;2023-04-06T04:03:22;100222.60;;;-2.82;79.90
76753;BME280;65687;51.308;16.916;2023-04-06T04:08:24;100222.09;;;-2.87;79.95
76753;BME280;65687;51.308;16.916;2023-04-06T04:13:26;100221.19;;;-2.86;79.87
76753;BME280;65687;51.308;16.916;2023-04-06T04:18:27;100228.86;;;-2.87;79.75
76753;BME280;65687;51.308;16.916;2023-04-06T04:23:29;100218.51;;;-2.89;80.00
76753;BME280;65687;51.308;16.916;2023-04-06T04:28:30;100217.96;;;-2.91;79.88
76753;BME280;65687;51.308;16.916;2023-04-06T04:33:32;100224.70;;;-3.01;79.94
76753;BME280;65687;51.308;16.916;2023-04-06T04:38:34;100227.81;;;-3.10;79.93
76753;BME280;65687;51.308;16.916;2023-04-06T04:43:35;100226.13;;;-3.17;80.37
76753;BME280;65687;51.308;16.916;2023-04-06T04:48:37;100230.81;;;-3.24;80.42
76753;BME280;65687;51.308;16.916;2023-04-06T04:53:38;100232.39;;;-3.26;80.75
76753;BME280;65687;51.308;16.916;2023-04-06T04:58:40;100232.02;;;-3.15;80.89
76753;BME280;65687;51.308;16.916;2023-04-06T05:03:41;100231.91;;;-3.05;80.57
76753;BME280;65687;51.308;16.916;2023-04-06T05:08:43;100234.56;;;-3.01;80.47
76753;BME280;65687;51.308;16.916;2023-04-06T05:13:44;100235.41;;;-3.02;80.45
76753;BME280;65687;51.308;16.916;2023-04-06T05:18:47;100238.25;;;-3.11;80.77
76753;BME280;65687;51.308;16.916;2023-04-06T05:23:49;100240.56;;;-3.10;81.10
76753;BME280;65687;51.308;16.916;2023-04-06T05:28:50;100245.42;;;-3.06;81.65
76753;BME280;65687;51.308;16.916;2023-04-06T05:33:52;100247.40;;;-2.99;81.95
76753;BME280;65687;51.308;16.916;2023-04-06T05:38:54;100250.67;;;-2.89;82.00
76753;BME280;65687;51.308;16.916;2023-04-06T05:43:57;100247.48;;;-2.74;82.04
76753;BME280;65687;51.308;16.916;2023-04-06T05:48:58;100247.61;;;-2.58;82.20
76753;BME280;65687;51.308;16.916;2023-04-06T05:54:00;100244.05;;;-2.38;82.23
76753;BME280;65687;51.308;16.916;2023-04-06T05:59:01;100239.39;;;-2.28;82.06
76753;BME280;65687;51.308;16.916;2023-04-06T06:04:03;100241.33;;;-2.23;82.70
76753;BME280;65687;51.308;16.916;2023-04-06T06:09:05;100239.89;;;-2.14;82.76
76753;BME280;65687;51.308;16.916;2023-04-06T06:14:06;100243.08;;;-2.04;82.80
76753;BME280;65687;51.308;16.916;2023-04-06T06:19:08;100243.09;;;-1.90;82.91
76753;BME280;65687;51.308;16.916;2023-04-06T06:24:09;100239.52;;;-1.68;82.39
76753;BME280;65687;51.308;16.916;2023-04-06T06:29:11;100238.21;;;-1.46;82.23
76753;BME280;65687;51.308;16.916;2023-04-06T06:34:12;100240.17;;;-1.35;82.50
76753;BME280;65687;51.308;16.916;2023-04-06T06:39:14;100238.41;;;-1.25;82.72
76753;BME280;65687;51.308;16.916;2023-04-06T06:44:16;100239.27;;;-1.10;82.51
76753;BME280;65687;51.308;16.916;2023-04-06T06:49:18;100234.82;;;-0.93;82.50
76753;BME280;65687;51.308;16.916;2023-04-06T06:54:19;100237.38;;;-0.71;81.79
76753;BME280;65687;51.308;16.916;2023-04-06T06:59:21;100242.10;;;-0.50;80.55
76753;BME280;65687;51.308;16.916;2023-04-06T07:04:23;100250.44;;;-0.32;79.62
76753;BME280;65687;51.308;16.916;2023-04-06T07:09:24;100253.81;;;-0.19;78.38
76753;BME280;65687;51.308;16.916;2023-04-06T07:14:27;100255.80;;;-0.07;77.85
76753;BME280;65687;51.308;16.916;2023-04-06T07:19:29;100254.98;;;0.02;76.90
76753;BME280;65687;51.308;16.916;2023-04-06T07:24:30;100251.44;;;0.19;77.00
76753;BME280;65687;51.308;16.916;2023-04-06T07:29:32;100249.92;;;0.38;76.43
76753;BME280;65687;51.308;16.916;2023-04-06T07:34:33;100249.69;;;0.56;75.87
76753;BME280;65687;51.308;16.916;2023-04-06T07:39:35;100250.52;;;0.74;75.86
76753;BME280;65687;51.308;16.916;2023-04-06T07:44:36;100250.80;;;0.95;75.34
76753;BME280;65687;51.308;16.916;2023-04-06T07:49:38;100253.89;;;1.12;74.92
76753;BME280;65687;51.308;16.916;2023-04-06T07:54:40;100255.27;;;1.33;75.06
76753;BME280;65687;51.308;16.916;2023-04-06T07:59:42;100253.55;;;1.65;74.82
76753;BME280;65687;51.308;16.916;2023-04-06T08:04:44;100254.88;;;1.91;73.69
76753;BME280;65687;51.308;16.916;2023-04-06T08:09:46;100254.04;;;2.17;72.91
76753;BME280;65687;51.308;16.916;2023-04-06T08:14:48;100256.20;;;2.44;70.91
76753;BME280;65687;51.308;16.916;2023-04-06T08:19:49;100255.23;;;2.67;71.06
76753;BME280;65687;51.308;16.916;2023-04-06T08:24:51;100252.50;;;2.99;69.27
76753;BME280;65687;51.308;16.916;2023-04-06T08:29:52;100249.08;;;3.28;66.23
76753;BME280;65687;51.308;16.916;2023-04-06T08:34:54;100256.33;;;3.52;64.09
76753;BME280;65687;51.308;16.916;2023-04-06T08:39:57;100258.96;;;3.77;61.40
76753;BME280;65687;51.308;16.916;2023-04-06T08:44:59;100256.60;;;3.96;61.17
76753;BME280;65687;51.308;16.916;2023-04-06T08:50:03;100258.23;;;4.26;59.70
76753;BME280;65687;51.308;16.916;2023-04-06T08:55:05;100254.09;;;4.46;57.68
76753;BME280;65687;51.308;16.916;2023-04-06T09:00:07;100251.28;;;4.52;56.54
76753;BME280;65687;51.308;16.916;2023-04-06T09:05:11;100241.59;;;4.64;55.74
76753;BME280;65687;51.308;16.916;2023-04-06T09:10:13;100245.08;;;4.88;56.67
76753;BME280;65687;51.308;16.916;2023-04-06T09:15:21;100244.46;;;5.18;55.92
76753;BME280;65687;51.308;16.916;2023-04-06T09:20:24;100238.29;;;5.36;54.02
76753;BME280;65687;51.308;16.916;2023-04-06T09:25:32;100237.73;;;5.56;52.94
76753;BME280;65687;51.308;16.916;2023-04-06T09:30:33;100237.67;;;5.63;52.65
76753;BME280;65687;51.308;16.916;2023-04-06T09:35:37;100236.92;;;5.53;51.78
76753;BME280;65687;51.308;16.916;2023-04-06T09:40:50;100233.46;;;5.80;51.21
76753;BME280;65687;51.308;16.916;2023-04-06T09:45:52;100230.77;;;6.10;51.65
76753;BME280;65687;51.308;16.916;2023-04-06T09:50:59;100230.39;;;6.25;51.55
76753;BME280;65687;51.308;16.916;2023-04-06T09:56:03;100223.84;;;6.48;50.80
76753;BME280;65687;51.308;16.916;2023-04-06T10:01:12;100220.39;;;6.58;49.45
76753;BME280;65687;51.308;16.916;2023-04-06T10:06:20;100212.73;;;6.70;51.00
76753;BME280;65687;51.308;16.916;2023-04-06T10:11:23;100212.07;;;6.75;49.29
76753;BME280;65687;51.308;16.916;2023-04-06T10:16:25;100213.78;;;6.34;48.62
76753;BME280;65687;51.308;16.916;2023-04-06T10:21:28;100209.82;;;6.32;47.36
76753;BME280;65687;51.308;16.916;2023-04-06T10:26:32;100207.70;;;6.53;47.91
76753;BME280;65687;51.308;16.916;2023-04-06T10:31:39;100208.35;;;6.73;47.28
76753;BME280;65687;51.308;16.916;2023-04-06T10:36:43;100208.77;;;6.54;47.62
76753;BME280;65687;51.308;16.916;2023-04-06T10:41:47;100199.34;;;6.68;48.88
76753;BME280;65687;51.308;16.916;2023-04-06T10:46:59;100198.30;;;6.77;47.45
76753;BME280;65687;51.308;16.916;2023-04-06T10:52:05;100194.09;;;7.06;46.98
76753;BME280;65687;51.308;16.916;2023-04-06T10:57:07;100193.07;;;7.48;46.69
76753;BME280;65687;51.308;16.916;2023-04-06T11:02:09;100187.61;;;7.57;46.22
76753;BME280;65687;51.308;16.916;2023-04-06T11:07:26;100181.33;;;7.79;47.52
76753;BME280;65687;51.308;16.916;2023-04-06T11:12:28;100178.03;;;7.99;45.31
76753;BME280;65687;51.308;16.916;2023-04-06T11:17:33;100171.72;;;8.00;45.02
76753;BME280;65687;51.308;16.916;2023-04-06T11:22:35;100170.30;;;8.18;45.27
76753;BME280;65687;51.308;16.916;2023-04-06T11:27:37;100162.84;;;8.25;44.75
76753;BME280;65687;51.308;16.916;2023-04-06T11:32:40;100160.66;;;8.02;43.99
76753;BME280;65687;51.308;16.916;2023-04-06T11:37:43;100153.41;;;7.87;44.98
76753;BME280;65687;51.308;16.916;2023-04-06T11:42:51;100149.58;;;7.98;45.00
76753;BME280;65687;51.308;16.916;2023-04-06T11:47:58;100148.76;;;7.86;43.73
76753;BME280;65687;51.308;16.916;2023-04-06T11:53:01;100143.14;;;7.75;42.66
76753;BME280;65687;51.308;16.916;2023-04-06T11:58:04;100139.89;;;7.62;43.49
76753;BME280;65687;51.308;16.916;2023-04-06T12:03:06;100132.50;;;7.55;44.40
76753;BME280;65687;51.308;16.916;2023-04-06T12:08:07;100127.24;;;7.55;44.23
76753;BME280;65687;51.308;16.916;2023-04-06T12:13:09;100125.44;;;7.53;44.46
76753;BME280;65687;51.308;16.916;2023-04-06T12:18:11;100123.86;;;7.69;44.27
76753;BME280;65687;51.308;16.916;2023-04-06T12:23:14;100120.80;;;7.63;43.44
76753;BME280;65687;51.308;16.916;2023-04-06T12:28:18;100111.47;;;7.53;43.89
76753;BME280;65687;51.308;16.916;2023-04-06T12:33:22;100108.09;;;7.49;43.81
76753;BME280;65687;51.308;16.916;2023-04-06T12:38:23;100102.83;;;7.46;44.48
76753;BME280;65687;51.308;16.916;2023-04-06T12:43:25;100091.37;;;7.46;44.60
76753;BME280;65687;51.308;16.916;2023-04-06T12:48:27;100091.73;;;7.46;45.36
76753;BME280;65687;51.308;16.916;2023-04-06T12:53:29;100083.36;;;7.51;45.26
76753;BME280;65687;51.308;16.916;2023-04-06T12:58:30;100080.89;;;7.49;45.17
76753;BME280;65687;51.308;16.916;2023-04-06T13:03:33;100074.40;;;7.42;44.64
76753;BME280;65687;51.308;16.916;2023-04-06T13:08:35;100068.02;;;7.38;44.54
76753;BME280;65687;51.308;16.916;2023-04-06T13:13:38;100067.02;;;7.42;45.35
76753;BME280;65687;51.308;16.916;2023-04-06T13:18:40;100058.75;;;7.52;45.29
76753;BME280;65687;51.308;16.916;2023-04-06T13:23:43;100053.60;;;7.46;45.06
76753;BME280;65687;51.308;16.916;2023-04-06T13:28:45;100053.16;;;7.37;45.22
76753;BME280;65687;51.308;16.916;2023-04-06T13:33:46;100051.23;;;7.48;46.15
76753;BME280;65687;51.308;16.916;2023-04-06T13:38:48;100039.91;;;7.45;43.90
76753;BME280;65687;51.308;16.916;2023-04-06T13:43:50;100045.07;;;7.36;44.14
76753;BME280;65687;51.308;16.916;2023-04-06T13:48:51;100038.41;;;7.29;43.30
76753;BME280;65687;51.308;16.916;2023-04-06T13:53:53;100036.15;;;7.28;43.72
76753;BME280;65687;51.308;16.916;2023-04-06T13:58:55;100033.98;;;7.41;44.25
76753;BME280;65687;51.308;16.916;2023-04-06T14:03:57;100032.48;;;7.36;43.14
76753;BME280;65687;51.308;16.916;2023-04-06T14:08:59;100028.41;;;7.33;44.11
76753;BME280;65687;51.308;16.916;2023-04-06T14:14:00;100028.77;;;7.32;45.19
76753;BME280;65687;51.308;16.916;2023-04-06T14:19:02;100026.46;;;7.28;43.86
76753;BME280;65687;51.308;16.916;2023-04-06T14:24:04;100024.17;;;7.09;43.59
76753;BME280;65687;51.308;16.916;2023-04-06T14:29:05;100022.33;;;6.96;44.94
76753;BME280;65687;51.308;16.916;2023-04-06T14:34:07;100021.95;;;6.86;44.30
76753;BME280;65687;51.308;16.916;2023-04-06T14:39:08;100018.36;;;6.79;44.33
76753;BME280;65687;51.308;16.916;2023-04-06T14:44:12;100016.36;;;6.95;44.60
76753;BME280;65687;51.308;16.916;2023-04-06T14:49:14;100016.46;;;7.09;44.28
76753;BME280;65687;51.308;16.916;2023-04-06T14:54:16;100007.53;;;7.23;43.79
76753;BME280;65687;51.308;16.916;2023-04-06T14:59:17;100000.80;;;7.31;43.90
76753;BME280;65687;51.308;16.916;2023-04-06T15:04:19;100004.85;;;7.44;43.64
76753;BME280;65687;51.308;16.916;2023-04-06T15:09:21;100003.14;;;7.52;44.36
76753;BME280;65687;51.308;16.916;2023-04-06T15:14:22;99998.65;;;7.53;43.37
76753;BME280;65687;51.308;16.916;2023-04-06T15:19:24;99991.02;;;7.47;43.63
76753;BME280;65687;51.308;16.916;2023-04-06T15:24:25;99992.44;;;7.53;43.86
76753;BME280;65687;51.308;16.916;2023-04-06T15:29:27;99992.75;;;7.46;42.50
76753;BME280;65687;51.308;16.916;2023-04-06T15:34:30;99988.04;;;7.35;43.09
76753;BME280;65687;51.308;16.916;2023-04-06T15:39:34;99984.36;;;7.25;43.21
76753;BME280;65687;51.308;16.916;2023-04-06T15:44:35;99987.63;;;7.22;43.32
76753;BME280;65687;51.308;16.916;2023-04-06T15:49:37;99984.79;;;7.12;43.42
76753;BME280;65687;51.308;16.916;2023-04-06T15:54:38;99984.02;;;7.01;43.85
76753;BME280;65687;51.308;16.916;2023-04-06T15:59:41;99982.10;;;6.95;44.23
76753;BME280;65687;51.308;16.916;2023-04-06T16:04:42;99985.11;;;6.89;44.18
76753;BME280;65687;51.308;16.916;2023-04-06T16:09:44;99986.13;;;6.87;44.58
76753;BME280;65687;51.308;16.916;2023-04-06T16:14:45;99983.13;;;6.81;44.66
76753;BME280;65687;51.308;16.916;2023-04-06T16:19:47;99979.85;;;6.76;45.40
76753;BME280;65687;51.308;16.916;2023-04-06T16:24:50;99978.25;;;6.69;45.16
76753;BME280;65687;51.308;16.916;2023-04-06T16:29:51;99977.37;;;6.62;45.26
76753;BME280;65687;51.308;16.916;2023-04-06T16:34:53;99981.89;;;6.58;45.46
76753;BME280;65687;51.308;16.916;2023-04-06T16:39:54;99978.45;;;6.53;45.61
76753;BME280;65687;51.308;16.916;2023-04-06T16:44:56;99981.84;;;6.45;45.82
76753;BME280;65687;51.308;16.916;2023-04-06T16:49:58;99977.68;;;6.40;45.65
76753;BME280;65687;51.308;16.916;2023-04-06T16:54:59;99978.66;;;6.31;45.56
76753;BME280;65687;51.308;16.916;2023-04-06T17:00:01;99975.05;;;6.25;46.41
76753;BME280;65687;51.308;16.916;2023-04-06T17:05:05;99974.09;;;6.19;46.70
76753;BME280;65687;51.308;16.916;2023-04-06T17:10:07;99974.79;;;6.15;47.17
76753;BME280;65687;51.308;16.916;2023-04-06T17:15:09;99976.80;;;6.09;47.31
76753;BME280;65687;51.308;16.916;2023-04-06T17:20:11;99974.54;;;6.04;47.90
76753;BME280;65687;51.308;16.916;2023-04-06T17:25:13;99977.36;;;5.98;48.84
76753;BME280;65687;51.308;16.916;2023-04-06T17:30:15;99984.86;;;5.92;50.14
76753;BME280;65687;51.308;16.916;2023-04-06T17:35:16;99990.15;;;5.89;50.23
76753;BME280;65687;51.308;16.916;2023-04-06T17:40:18;99987.05;;;5.84;49.92
76753;BME280;65687;51.308;16.916;2023-04-06T17:45:20;99989.14;;;5.77;51.23
76753;BME280;65687;51.308;16.916;2023-04-06T17:50:21;99994.66;;;5.70;51.73
76753;BME280;65687;51.308;16.916;2023-04-06T17:55:23;99990.84;;;5.57;52.36
76753;BME280;65687;51.308;16.916;2023-04-06T18:00:25;99995.71;;;5.45;53.13
76753;BME280;65687;51.308;16.916;2023-04-06T18:05:27;100002.55;;;5.28;53.81
76753;BME280;65687;51.308;16.916;2023-04-06T18:10:28;100001.27;;;5.14;55.12
76753;BME280;65687;51.308;16.916;2023-04-06T18:15:30;100002.55;;;4.99;56.18
76753;BME280;65687;51.308;16.916;2023-04-06T18:20:32;100006.02;;;4.90;56.12
76753;BME280;65687;51.308;16.916;2023-04-06T18:25:40;100006.80;;;4.80;57.13
76753;BME280;65687;51.308;16.916;2023-04-06T18:30:41;100005.99;;;4.71;58.09
76753;BME280;65687;51.308;16.916;2023-04-06T18:35:43;100011.16;;;4.69;58.69
76753;BME280;65687;51.308;16.916;2023-04-06T18:40:46;100012.19;;;4.64;58.29
76753;BME280;65687;51.308;16.916;2023-04-06T18:45:47;100013.16;;;4.54;58.57
76753;BME280;65687;51.308;16.916;2023-04-06T18:50:53;100015.50;;;4.48;58.50
76753;BME280;65687;51.308;16.916;2023-04-06T18:55:56;100018.66;;;4.43;58.32
76753;BME280;65687;51.308;16.916;2023-04-06T19:00:58;100023.25;;;4.33;59.10
76753;BME280;65687;51.308;16.916;2023-04-06T19:05:59;100021.40;;;4.28;59.21
76753;BME280;65687;51.308;16.916;2023-04-06T19:11:05;100020.80;;;4.24;59.86
76753;BME280;65687;51.308;16.916;2023-04-06T19:16:09;100019.30;;;4.19;59.83
76753;BME280;65687;51.308;16.916;2023-04-06T19:21:16;100020.30;;;4.12;59.95
76753;BME280;65687;51.308;16.916;2023-04-06T19:26:20;100022.86;;;4.07;60.23
76753;BME280;65687;51.308;16.916;2023-04-06T19:31:23;100021.85;;;4.02;60.28
76753;BME280;65687;51.308;16.916;2023-04-06T19:36:24;100021.77;;;4.01;60.24
76753;BME280;65687;51.308;16.916;2023-04-06T19:41:26;100017.64;;;3.98;61.03
76753;BME280;65687;51.308;16.916;2023-04-06T19:46:28;100018.67;;;3.96;61.78
76753;BME280;65687;51.308;16.916;2023-04-06T19:51:31;100006.37;;;3.93;62.50
76753;BME280;65687;51.308;16.916;2023-04-06T19:56:32;100001.27;;;3.89;62.85
76753;BME280;65687;51.308;16.916;2023-04-06T20:01:34;100001.31;;;3.82;62.75
76753;BME280;65687;51.308;16.916;2023-04-06T20:06:38;99998.34;;;3.77;64.22
76753;BME280;65687;51.308;16.916;2023-04-06T20:11:40;100000.52;;;3.75;64.25
76753;BME280;65687;51.308;16.916;2023-04-06T20:16:42;100000.05;;;3.72;64.09
76753;BME280;65687;51.308;16.916;2023-04-06T20:21:43;99996.94;;;3.71;63.64
76753;BME280;65687;51.308;16.916;2023-04-06T20:26:45;99995.02;;;3.67;64.27
76753;BME280;65687;51.308;16.916;2023-04-06T20:31:47;99990.89;;;3.66;64.88
76753;BME280;65687;51.308;16.916;2023-04-06T20:36:48;99989.63;;;3.66;64.67
76753;BME280;65687;51.308;16.916;2023-04-06T20:41:50;99984.27;;;3.61;64.59
76753;BME280;65687;51.308;16.916;2023-04-06T20:46:53;99988.00;;;3.57;64.59
76753;BME280;65687;51.308;16.916;2023-04-06T20:51:54;99985.16;;;3.55;65.11
76753;BME280;65687;51.308;16.916;2023-04-06T20:56:57;99981.15;;;3.54;65.39
76753;BME280;65687;51.308;16.916;2023-04-06T21:02:00;99976.54;;;3.57;65.66
76753;BME280;65687;51.308;16.916;2023-04-06T21:07:03;99977.03;;;3.57;65.67
76753;BME280;65687;51.308;16.916;2023-04-06T21:12:06;99976.77;;;3.59;66.39
76753;BME280;65687;51.308;16.916;2023-04-06T21:17:08;99976.56;;;3.62;66.35
76753;BME280;65687;51.308;16.916;2023-04-06T21:22:09;99975.05;;;3.66;66.43
76753;BME280;65687;51.308;16.916;2023-04-06T21:27:11;99974.63;;;3.67;66.70
76753;BME280;65687;51.308;16.916;2023-04-06T21:32:13;99965.05;;;3.66;65.62
76753;BME280;65687;51.308;16.916;2023-04-06T21:37:14;99963.27;;;3.68;65.14
76753;BME280;65687;51.308;16.916;2023-04-06T21:42:16;99956.66;;;3.69;64.35
76753;BME280;65687;51.308;16.916;2023-04-06T21:47:17;99954.80;;;3.70;64.77
76753;BME280;65687;51.308;16.916;2023-04-06T21:52:19;99950.08;;;3.70;64.23
76753;BME280;65687;51.308;16.916;2023-04-06T21:57:21;99949.31;;;3.71;64.05
76753;BME280;65687;51.308;16.916;2023-04-06T22:02:22;99944.68;;;3.71;63.37
76753;BME280;65687;51.308;16.916;2023-04-06T22:07:24;99941.65;;;3.73;62.20
76753;BME280;65687;51.308;16.916;2023-04-06T22:12:26;99943.85;;;3.73;62.43
76753;BME280;65687;51.308;16.916;2023-04-06T22:17:28;99943.65;;;3.73;63.10
76753;BME280;65687;51.308;16.916;2023-04-06T22:22:29;99943.33;;;3.71;63.77
76753;BME280;65687;51.308;16.916;2023-04-06T22:27:31;99941.30;;;3.71;61.65
76753;BME280;65687;51.308;16.916;2023-04-06T22:32:32;99934.77;;;3.71;60.80
76753;BME280;65687;51.308;16.916;2023-04-06T22:37:34;99932.64;;;3.71;60.09
76753;BME280;65687;51.308;16.916;2023-04-06T22:42:36;99929.83;;;3.70;60.28
76753;BME280;65687;51.308;16.916;2023-04-06T22:47:37;99925.23;;;3.69;60.79
76753;BME280;65687;51.308;16.916;2023-04-06T22:52:39;99917.11;;;3.66;61.26
76753;BME280;65687;51.308;16.916;2023-04-06T22:57:40;99920.16;;;3.65;61.34
76753;BME280;65687;51.308;16.916;2023-04-06T23:02:42;99915.09;;;3.62;61.37
76753;BME280;65687;51.308;16.916;2023-04-06T23:07:43;99911.38;;;3.60;62.10
76753;BME280;65687;51.308;16.916;2023-04-06T23:12:45;99913.21;;;3.57;62.86
76753;BME280;65687;51.308;16.916;2023-04-06T23:17:48;99914.77;;;3.50;63.30
76753;BME280;65687;51.308;16.916;2023-04-06T23:22:49;99913.55;;;3.49;63.87
76753;BME280;65687;51.308;16.916;2023-04-06T23:27:51;99914.94;;;3.50;63.89
76753;BME280;65687;51.308;16.916;2023-04-06T23:32:52;99915.73;;;3.49;64.48
76753;BME280;65687;51.308;16.916;2023-04-06T23:37:54;99915.23;;;3.48;65.40
76753;BME280;65687;51.308;16.916;2023-04-06T23:42:55;99915.77;;;3.39;66.53
76753;BME280;65687;51.308;16.916;2023-04-06T23:47:57;99911.44;;;3.32;67.83
76753;BME280;65687;51.308;16.916;2023-04-06T23:52:58;99910.20;;;3.30;68.70
76753;BME280;65687;51.308;16.916;2023-04-06T23:58:00;99907.05;;;3.25;69.29
